createdAt,value
2018-11-27T00:00:44.819Z,83.03
2018-11-27T00:03:14.156Z,82.65
2018-11-27T00:05:43.283Z,82.68
2018-11-27T00:08:12.416Z,82.90
2018-11-27T00:10:41.543Z,83.15
2018-11-27T00:13:10.833Z,82.68
2018-11-27T00:15:39.969Z,83.53
2018-11-27T00:18:09.131Z,83.64
2018-11-27T00:20:38.299Z,82.90
2018-11-27T00:23:07.479Z,82.72
2018-11-27T00:25:37.008Z,83.43
2018-11-27T00:28:06.264Z,83.20
2018-11-27T00:30:35.420Z,83.68
2018-11-27T00:33:04.560Z,83.30
2018-11-27T00:35:33.694Z,83.18
2018-11-27T00:38:02.869Z,82.84
2018-11-27T00:40:32.086Z,83.22
2018-11-27T00:43:02.107Z,82.98
2018-11-27T00:45:31.251Z,83.09
2018-11-27T00:48:00.506Z,82.54
2018-11-27T00:50:29.696Z,82.60
2018-11-27T00:52:58.907Z,82.24
2018-11-27T00:55:28.110Z,82.85
2018-11-27T00:57:57.272Z,82.82
2018-11-27T01:00:26.475Z,82.92
2018-11-27T01:02:55.688Z,83.08
2018-11-27T01:05:25.143Z,82.26
2018-11-27T01:07:54.388Z,83.30
2018-11-27T01:10:25.268Z,83.14
2018-11-27T01:12:54.759Z,83.01
2018-11-27T01:15:24.046Z,82.39
2018-11-27T01:17:57.069Z,82.72
2018-11-27T01:20:27.407Z,82.84
2018-11-27T01:22:56.663Z,82.67
2018-11-27T01:25:25.795Z,82.74
2018-11-27T01:27:55.022Z,82.72
2018-11-27T01:30:24.504Z,82.98
2018-11-27T01:32:53.657Z,82.49
2018-11-27T01:35:23.933Z,83.19
2018-11-27T01:37:54.594Z,83.28
2018-11-27T01:40:27.130Z,82.40
2018-11-27T01:42:57.579Z,82.74
2018-11-27T01:45:27.043Z,82.83
2018-11-27T01:47:56.247Z,82.61
2018-11-27T01:50:25.419Z,83.24
2018-11-27T01:52:54.724Z,82.71
2018-11-27T01:55:24.047Z,82.86
2018-11-27T01:57:53.319Z,82.74
2018-11-27T02:00:28.430Z,82.82
2018-11-27T02:02:58.516Z,82.58
2018-11-27T02:05:29.131Z,83.07
2018-11-27T02:07:58.375Z,82.80
2018-11-27T02:10:27.581Z,83.00
2018-11-27T02:13:01.148Z,82.37
2018-11-27T02:15:28.935Z,82.91
2018-11-27T02:17:58.336Z,82.96
2018-11-27T02:20:27.504Z,83.43
2018-11-27T02:22:56.719Z,82.78
2018-11-27T02:25:28.500Z,82.58
2018-11-27T02:27:57.846Z,82.00
2018-11-27T02:30:27.779Z,83.37
2018-11-27T02:32:56.947Z,83.27
2018-11-27T02:35:26.985Z,82.71
2018-11-27T02:37:57.735Z,82.82
2018-11-27T02:40:26.979Z,82.73
2018-11-27T02:42:56.178Z,82.31
2018-11-27T02:45:26.138Z,81.93
2018-11-27T02:47:55.980Z,81.99
2018-11-27T02:50:26.179Z,82.61
2018-11-27T02:52:55.343Z,82.63
2018-11-27T02:55:26.738Z,83.06
2018-11-27T02:57:56.067Z,83.29
2018-11-27T03:00:27.849Z,82.60
2018-11-27T03:02:57.024Z,82.43
2018-11-27T03:05:35.499Z,82.72
2018-11-27T03:08:04.827Z,81.84
2018-11-27T03:10:34.111Z,82.48
2018-11-27T03:13:03.336Z,82.78
2018-11-27T03:15:32.493Z,82.17
2018-11-27T03:18:01.697Z,81.97
2018-11-27T03:20:30.890Z,82.73
2018-11-27T03:23:00.057Z,82.99
2018-11-27T03:25:29.207Z,82.62
2018-11-27T03:27:58.384Z,83.10
2018-11-27T03:30:27.772Z,83.57
2018-11-27T03:32:56.895Z,82.69
2018-11-27T03:35:26.560Z,82.81
2018-11-27T03:37:55.852Z,82.51
2018-11-27T03:40:28.056Z,83.18
2018-11-27T03:42:57.280Z,83.18
2018-11-27T03:45:26.767Z,82.47
2018-11-27T03:47:56.001Z,82.83
2018-11-27T03:50:29.002Z,83.02
2018-11-27T03:52:58.155Z,83.44
2018-11-27T03:55:27.381Z,83.00
2018-11-27T03:57:56.540Z,83.01
2018-11-27T04:00:29.220Z,83.01
2018-11-27T04:03:15.784Z,83.22
2018-11-27T04:05:44.983Z,82.37
2018-11-27T04:08:14.202Z,82.64
2018-11-27T04:10:43.427Z,83.04
2018-11-27T04:13:12.611Z,83.05
2018-11-27T04:15:41.825Z,83.13
2018-11-27T04:18:11.019Z,83.15
2018-11-27T04:20:40.229Z,82.58
2018-11-27T04:23:09.440Z,82.59
2018-11-27T04:25:38.673Z,82.71
2018-11-27T04:28:08.631Z,83.00
2018-11-27T04:30:37.831Z,83.18
2018-11-27T04:33:07.069Z,83.15
2018-11-27T04:35:36.323Z,82.46
2018-11-27T04:38:06.239Z,82.72
2018-11-27T04:40:35.449Z,82.69
2018-11-27T04:43:05.158Z,83.17
2018-11-27T04:45:34.384Z,83.13
2018-11-27T04:48:03.604Z,82.67
2018-11-27T04:50:32.792Z,82.36
2018-11-27T04:53:02.083Z,82.77
2018-11-27T04:55:31.322Z,82.84
2018-11-27T04:58:00.531Z,82.82
2018-11-27T05:00:29.876Z,82.98
2018-11-27T05:02:59.108Z,82.91
2018-11-27T05:05:28.355Z,83.07
2018-11-27T05:07:57.647Z,82.96
2018-11-27T05:10:26.837Z,82.92
2018-11-27T05:12:56.052Z,82.72
2018-11-27T05:15:26.652Z,83.00
2018-11-27T05:17:58.011Z,83.06
2018-11-27T05:20:27.259Z,82.76
2018-11-27T05:22:56.578Z,82.42
2018-11-27T05:25:25.807Z,83.15
2018-11-27T05:27:56.945Z,82.44
2018-11-27T05:30:28.709Z,82.92
2018-11-27T05:32:57.937Z,82.60
2018-11-27T05:35:29.090Z,82.42
2018-11-27T05:38:00.000Z,82.35
2018-11-27T05:40:29.243Z,82.51
2018-11-27T05:43:00.602Z,81.95
2018-11-27T05:45:30.153Z,82.09
2018-11-27T05:47:59.344Z,82.34
2018-11-27T05:50:28.594Z,82.89
2018-11-27T05:52:57.804Z,82.82
2018-11-27T05:55:27.060Z,83.06
2018-11-27T05:57:57.154Z,83.55
2018-11-27T06:00:27.787Z,83.09
2018-11-27T06:03:01.656Z,82.58
2018-11-27T06:05:30.896Z,82.99
2018-11-27T06:08:00.114Z,83.08
2018-11-27T06:10:29.423Z,82.83
2018-11-27T06:12:58.658Z,82.71
2018-11-27T06:15:27.861Z,83.10
2018-11-27T06:17:59.228Z,82.72
2018-11-27T06:20:28.449Z,83.13
2018-11-27T06:22:57.636Z,83.26
2018-11-27T06:25:29.600Z,82.77
2018-11-27T06:28:02.917Z,83.07
2018-11-27T06:30:34.048Z,82.67
2018-11-27T06:33:03.247Z,83.22
2018-11-27T06:35:36.126Z,82.86
2018-11-27T06:38:07.461Z,82.40
2018-11-27T06:40:36.695Z,83.07
2018-11-27T06:43:08.651Z,82.87
2018-11-27T06:45:38.245Z,82.53
2018-11-27T06:48:08.135Z,82.40
2018-11-27T06:50:37.387Z,82.58
2018-11-27T06:53:08.041Z,82.99
2018-11-27T06:55:37.807Z,82.56
2018-11-27T06:58:08.219Z,82.88
2018-11-27T07:00:37.502Z,82.12
2018-11-27T07:03:13.578Z,82.70
2018-11-27T07:05:42.982Z,82.78
2018-11-27T07:08:12.210Z,82.62
2018-11-27T07:10:43.645Z,82.54
2018-11-27T07:13:16.345Z,81.70
2018-11-27T07:15:45.811Z,82.24
2018-11-27T07:18:15.012Z,82.80
2018-11-27T07:20:44.202Z,80.89
2018-11-27T07:23:13.531Z,82.33
2018-11-27T07:25:42.815Z,82.91
2018-11-27T07:28:12.065Z,82.64
2018-11-27T07:30:42.737Z,83.15
2018-11-27T07:33:12.005Z,82.88
2018-11-27T07:35:41.225Z,82.82
2018-11-27T07:38:10.444Z,83.15
2018-11-27T07:40:39.742Z,82.73
2018-11-27T07:43:11.179Z,82.96
2018-11-27T07:45:41.029Z,83.31
2018-11-27T07:48:10.983Z,83.13
2018-11-27T07:50:40.221Z,83.11
2018-11-27T07:53:09.454Z,82.93
2018-11-27T07:55:38.702Z,82.52
2018-11-27T07:58:08.071Z,83.07
2018-11-27T08:00:37.459Z,82.86
2018-11-27T08:03:07.735Z,83.27
2018-11-27T08:05:40.675Z,82.67
2018-11-27T08:08:15.038Z,82.34
2018-11-27T08:10:45.662Z,82.34
2018-11-27T08:13:14.952Z,82.52
2018-11-27T08:15:44.467Z,83.66
2018-11-27T08:18:13.869Z,82.52
2018-11-27T08:20:43.068Z,82.42
2018-11-27T08:23:13.254Z,82.61
2018-11-27T08:25:42.621Z,81.56
2018-11-27T08:28:11.783Z,81.87
2018-11-27T08:30:40.993Z,82.28
2018-11-27T08:33:10.276Z,82.33
2018-11-27T08:35:39.504Z,82.31
2018-11-27T08:38:08.692Z,82.50
2018-11-27T08:40:37.899Z,82.57
2018-11-27T08:43:08.104Z,81.95
2018-11-27T08:45:37.346Z,82.06
2018-11-27T08:48:07.243Z,81.90
2018-11-27T08:50:36.507Z,81.96
2018-11-27T08:53:07.755Z,81.83
2018-11-27T08:55:42.891Z,82.05
2018-11-27T08:58:21.824Z,82.02
2018-11-27T09:00:51.252Z,82.06
2018-11-27T09:03:20.464Z,81.92
2018-11-27T09:05:49.670Z,81.68
2018-11-27T09:08:18.931Z,81.63
2018-11-27T09:10:48.151Z,81.47
2018-11-27T09:13:17.645Z,81.35
2018-11-27T09:15:46.624Z,80.70
2018-11-27T09:18:20.926Z,81.34
2018-11-27T09:20:50.157Z,80.84
2018-11-27T09:23:19.351Z,80.92
2018-11-27T09:25:48.543Z,80.86
2018-11-27T09:28:17.741Z,81.34
2018-11-27T09:30:46.908Z,80.87
2018-11-27T09:33:16.080Z,81.33
2018-11-27T09:35:45.252Z,80.62
2018-11-27T09:38:14.419Z,81.28
2018-11-27T09:40:43.899Z,80.73
2018-11-27T09:43:13.085Z,80.31
2018-11-27T09:45:43.939Z,81.25
2018-11-27T09:48:13.142Z,81.38
2018-11-27T09:50:42.363Z,81.66
2018-11-27T09:53:13.710Z,81.47
2018-11-27T09:55:43.010Z,81.29
2018-11-27T09:58:12.151Z,81.24
2018-11-27T10:00:41.380Z,80.98
2018-11-27T10:03:13.461Z,81.48
2018-11-27T10:05:42.633Z,81.17
2018-11-27T10:08:11.876Z,81.23
2018-11-27T10:10:41.039Z,81.02
2018-11-27T10:13:10.300Z,80.93
2018-11-27T10:15:39.549Z,81.57
2018-11-27T10:18:08.732Z,81.98
2018-11-27T10:20:41.835Z,81.42
2018-11-27T10:23:12.972Z,81.19
2018-11-27T10:25:42.189Z,81.29
2018-11-27T10:28:11.385Z,81.19
2018-11-27T10:30:40.675Z,81.25
2018-11-27T10:33:11.467Z,81.21
2018-11-27T10:35:47.443Z,79.13
2018-11-27T10:38:16.668Z,80.15
2018-11-27T10:40:46.608Z,79.73
2018-11-27T10:43:19.692Z,79.93
2018-11-27T10:45:45.152Z,79.35
2018-11-27T10:48:14.380Z,79.10
2018-11-27T10:50:43.576Z,78.79
2018-11-27T10:53:13.479Z,80.27
2018-11-27T10:55:42.639Z,80.62
2018-11-27T10:58:11.864Z,81.05
2018-11-27T11:00:47.028Z,80.69
2018-11-27T11:03:46.771Z,78.99
2018-11-27T11:06:15.910Z,80.60
2018-11-27T11:08:45.161Z,81.48
2018-11-27T11:11:14.341Z,80.52
2018-11-27T11:13:43.564Z,80.37
2018-11-27T11:16:12.743Z,81.26
2018-11-27T11:18:41.931Z,80.79
2018-11-27T11:21:11.098Z,79.82
2018-11-27T11:23:40.255Z,78.29
2018-11-27T11:26:09.535Z,78.68
2018-11-27T11:28:38.748Z,79.50
2018-11-27T11:31:08.087Z,79.71
2018-11-27T11:33:37.357Z,80.58
2018-11-27T11:36:07.224Z,79.47
2018-11-27T11:38:36.559Z,78.59
2018-11-27T11:41:06.427Z,80.66
2018-11-27T11:43:35.663Z,80.30
2018-11-27T11:46:04.891Z,80.35
2018-11-27T11:48:34.061Z,80.75
2018-11-27T11:51:03.400Z,80.46
2018-11-27T11:53:32.559Z,80.18
2018-11-27T11:56:01.800Z,79.81
2018-11-27T11:58:31.038Z,80.78
2018-11-27T12:01:00.243Z,80.05
2018-11-27T12:03:30.629Z,81.12
2018-11-27T12:06:00.573Z,79.74
2018-11-27T12:08:29.764Z,79.75
2018-11-27T12:10:58.990Z,80.74
2018-11-27T12:13:28.155Z,80.72
2018-11-27T12:15:57.304Z,79.68
2018-11-27T12:18:26.467Z,80.37
2018-11-27T12:20:55.618Z,80.41
2018-11-27T12:23:24.759Z,79.76
2018-11-27T12:25:53.948Z,79.83
2018-11-27T12:28:23.151Z,79.72
2018-11-27T12:30:52.292Z,79.68
2018-11-27T12:33:21.454Z,79.45
2018-11-27T12:35:50.619Z,79.54
2018-11-27T12:38:19.885Z,79.23
2018-11-27T12:40:49.025Z,80.24
2018-11-27T12:43:18.196Z,78.88
2018-11-27T12:45:47.418Z,77.63
2018-11-27T12:48:16.628Z,78.32
2018-11-27T12:50:47.758Z,78.94
2018-11-27T12:53:18.315Z,79.69
2018-11-27T12:55:49.315Z,80.84
2018-11-27T12:58:18.455Z,78.91
2018-11-27T13:00:47.615Z,80.42
2018-11-27T13:03:16.845Z,81.48
2018-11-27T13:05:47.213Z,80.72
2018-11-27T13:08:19.401Z,79.34
2018-11-27T13:10:48.548Z,79.95
2018-11-27T13:13:17.747Z,80.40
2018-11-27T13:15:47.099Z,79.56
2018-11-27T13:18:16.320Z,80.10
2018-11-27T13:20:45.527Z,80.09
2018-11-27T13:23:14.716Z,79.65
2018-11-27T13:25:43.855Z,80.54
2018-11-27T13:28:14.947Z,79.85
2018-11-27T13:30:54.024Z,80.08
2018-11-27T13:33:26.944Z,80.52
2018-11-27T13:35:56.087Z,81.08
2018-11-27T13:38:26.144Z,79.24
2018-11-27T13:40:54.470Z,80.16
2018-11-27T13:43:27.454Z,80.36
2018-11-27T13:45:58.359Z,81.01
2018-11-27T13:48:27.583Z,82.15
2018-11-27T13:50:56.786Z,81.63
2018-11-27T13:53:26.010Z,79.62
2018-11-27T13:55:55.291Z,80.14
2018-11-27T13:58:24.492Z,79.86
2018-11-27T14:00:53.697Z,79.39
2018-11-27T14:03:22.903Z,79.00
2018-11-27T14:05:52.064Z,80.14
2018-11-27T14:08:21.271Z,80.56
2018-11-27T14:10:50.566Z,80.15
2018-11-27T14:13:19.724Z,80.15
2018-11-27T14:15:48.966Z,80.74
2018-11-27T14:18:18.184Z,80.36
2018-11-27T14:20:47.378Z,78.32
2018-11-27T14:23:16.602Z,79.60
2018-11-27T14:25:45.791Z,80.35
2018-11-27T14:28:15.039Z,79.65
2018-11-27T14:30:44.238Z,80.50
2018-11-27T14:33:13.420Z,80.68
2018-11-27T14:35:42.700Z,81.05
2018-11-27T14:38:11.847Z,80.93
2018-11-27T14:40:41.032Z,80.39
2018-11-27T14:43:10.184Z,81.31
2018-11-27T14:45:39.326Z,80.58
2018-11-27T14:48:08.889Z,80.93
2018-11-27T14:50:37.987Z,80.86
2018-11-27T14:53:07.321Z,81.30
2018-11-27T14:55:37.425Z,81.53
2018-11-27T14:58:07.278Z,80.85
2018-11-27T15:00:36.458Z,80.44
2018-11-27T15:03:06.440Z,80.61
2018-11-27T15:05:37.735Z,80.86
2018-11-27T15:08:10.566Z,80.50
2018-11-27T15:10:39.979Z,80.63
2018-11-27T15:13:10.780Z,80.64
2018-11-27T15:15:40.032Z,79.32
2018-11-27T15:18:09.454Z,80.04
2018-11-27T15:20:38.641Z,80.10
2018-11-27T15:23:07.916Z,80.17
2018-11-27T15:25:37.057Z,79.89
2018-11-27T15:28:06.383Z,80.90
2018-11-27T15:30:38.276Z,80.54
2018-11-27T15:33:08.176Z,80.29
2018-11-27T15:35:38.625Z,80.26
2018-11-27T15:38:08.448Z,80.54
2018-11-27T15:40:39.199Z,80.06
2018-11-27T15:43:08.736Z,80.11
2018-11-27T15:45:37.927Z,80.38
2018-11-27T15:48:09.205Z,80.71
2018-11-27T15:50:38.419Z,80.35
2018-11-27T15:53:07.591Z,81.02
2018-11-27T15:55:39.028Z,79.95
2018-11-27T15:58:13.878Z,79.86
2018-11-27T16:00:44.228Z,80.10
2018-11-27T16:03:13.681Z,80.46
2018-11-27T16:05:45.162Z,79.76
2018-11-27T16:08:15.292Z,79.91
2018-11-27T16:10:44.497Z,80.12
2018-11-27T16:13:13.767Z,79.67
2018-11-27T16:15:42.964Z,80.08
2018-11-27T16:18:12.199Z,79.67
2018-11-27T16:20:41.425Z,79.86
2018-11-27T16:23:10.767Z,79.65
2018-11-27T16:25:40.136Z,80.01
2018-11-27T16:28:09.339Z,80.34
2018-11-27T16:30:38.545Z,80.42
2018-11-27T16:33:08.067Z,81.50
2018-11-27T16:35:37.459Z,80.64
2018-11-27T16:38:08.496Z,80.71
2018-11-27T16:40:39.279Z,80.82
2018-11-27T16:43:09.036Z,80.97
2018-11-27T16:45:38.312Z,80.88
2018-11-27T16:48:07.503Z,79.71
2018-11-27T16:50:36.762Z,80.52
2018-11-27T16:53:06.507Z,81.29
2018-11-27T16:55:35.700Z,81.01
2018-11-27T16:58:04.891Z,81.21
2018-11-27T17:00:35.107Z,81.64
2018-11-27T17:03:05.990Z,80.72
2018-11-27T17:05:40.832Z,80.38
2018-11-27T17:08:10.088Z,81.33
2018-11-27T17:10:42.408Z,81.54
2018-11-27T17:13:12.875Z,80.65
2018-11-27T17:15:42.046Z,81.16
2018-11-27T17:18:12.363Z,81.54
2018-11-27T17:20:43.599Z,82.25
2018-11-27T17:23:15.999Z,80.99
2018-11-27T17:25:45.170Z,81.87
2018-11-27T17:28:19.799Z,81.31
2018-11-27T17:30:57.978Z,80.54
2018-11-27T17:34:42.053Z,81.29
2018-11-27T17:37:11.229Z,81.27
2018-11-27T17:39:40.379Z,80.77
2018-11-27T17:42:09.632Z,81.15
2018-11-27T17:44:38.766Z,80.80
2018-11-27T17:47:08.031Z,80.60
2018-11-27T17:49:37.272Z,80.54
2018-11-27T17:52:06.424Z,80.08
2018-11-27T17:54:35.596Z,80.10
2018-11-27T17:57:04.803Z,80.61
2018-11-27T17:59:34.014Z,80.20
2018-11-27T18:02:03.196Z,79.28
2018-11-27T18:04:32.336Z,79.85
2018-11-27T18:07:01.492Z,80.07
2018-11-27T18:09:30.665Z,79.52
2018-11-27T18:11:59.888Z,79.68
2018-11-27T18:14:29.068Z,80.08
2018-11-27T18:16:58.284Z,80.60
2018-11-27T18:19:27.456Z,80.34
2018-11-27T18:21:56.707Z,80.95
2018-11-27T18:24:26.060Z,81.08
2018-11-27T18:26:55.275Z,80.17
2018-11-27T18:29:24.459Z,79.48
2018-11-27T18:31:53.679Z,79.68
2018-11-27T18:34:22.888Z,80.11
2018-11-27T18:36:52.079Z,79.89
2018-11-27T18:39:21.252Z,80.55
2018-11-27T18:41:50.460Z,79.95
2018-11-27T18:44:19.662Z,80.62
2018-11-27T18:46:48.960Z,79.72
2018-11-27T18:49:18.180Z,80.39
2018-11-27T18:51:47.471Z,80.36
2018-11-27T18:54:16.624Z,80.09
2018-11-27T18:56:45.966Z,80.40
2018-11-27T18:59:15.123Z,80.33
2018-11-27T19:01:44.524Z,79.89
2018-11-27T19:04:14.099Z,79.50
2018-11-27T19:06:43.270Z,80.10
2018-11-27T19:09:12.545Z,80.55
2018-11-27T19:11:41.727Z,80.33
2018-11-27T19:14:10.915Z,80.59
2018-11-27T19:16:40.124Z,79.66
2018-11-27T19:19:09.338Z,80.19
2018-11-27T19:21:38.519Z,80.09
2018-11-27T19:24:07.731Z,80.30
2018-11-27T19:26:36.934Z,80.14
2018-11-27T19:29:06.623Z,80.44
2018-11-27T19:31:35.756Z,80.76
2018-11-27T19:34:04.947Z,80.49
2018-11-27T19:36:34.168Z,79.84
2018-11-27T19:39:03.746Z,79.98
2018-11-27T19:41:32.915Z,79.57
2018-11-27T19:44:02.321Z,79.98
2018-11-27T19:46:31.527Z,81.20
2018-11-27T19:49:00.732Z,79.76
2018-11-27T19:51:29.915Z,80.43
2018-11-27T19:53:59.254Z,80.12
2018-11-27T19:56:28.556Z,79.99
2018-11-27T19:58:57.743Z,80.78
2018-11-27T20:01:26.882Z,80.65
2018-11-27T20:03:56.127Z,80.35
2018-11-27T20:06:25.747Z,79.98
2018-11-27T20:08:55.249Z,79.92
2018-11-27T20:11:24.714Z,80.30
2018-11-27T20:13:54.379Z,79.75
2018-11-27T20:16:23.835Z,79.96
2018-11-27T20:18:53.224Z,80.11
2018-11-27T20:21:22.492Z,79.87
2018-11-27T20:23:52.085Z,79.92
2018-11-27T20:26:21.344Z,80.00
2018-11-27T20:28:50.528Z,80.30
2018-11-27T20:31:20.916Z,80.08
2018-11-27T20:33:50.247Z,79.75
2018-11-27T20:36:19.562Z,79.77
2018-11-27T20:38:48.937Z,79.94
2018-11-27T20:41:18.367Z,78.84
2018-11-27T20:43:47.797Z,79.64
2018-11-27T20:46:16.977Z,79.81
2018-11-27T20:48:46.403Z,80.26
2018-11-27T20:51:15.947Z,78.59
2018-11-27T20:53:45.519Z,78.91
2018-11-27T20:56:14.879Z,79.44
2018-11-27T20:58:44.229Z,79.46
2018-11-27T21:01:13.471Z,80.25
2018-11-27T21:03:43.506Z,79.56
2018-11-27T21:06:12.738Z,80.35
2018-11-27T21:08:42.372Z,80.37
2018-11-27T21:11:11.959Z,79.87
2018-11-27T21:13:41.500Z,80.31
2018-11-27T21:16:11.222Z,81.19
2018-11-27T21:18:40.692Z,79.66
2018-11-27T21:21:10.040Z,79.33
2018-11-27T21:23:39.685Z,80.73
2018-11-27T21:26:08.847Z,80.82
2018-11-27T21:28:38.014Z,80.54
2018-11-27T21:31:10.568Z,80.28
2018-11-27T21:33:39.932Z,80.14
2018-11-27T21:36:09.196Z,80.65
2018-11-27T21:38:38.510Z,80.53
2018-11-27T21:41:08.918Z,80.88
2018-11-27T21:43:38.177Z,81.21
2018-11-27T21:46:07.591Z,81.05
2018-11-27T21:48:36.912Z,81.61
2018-11-27T21:51:06.430Z,81.03
2018-11-27T21:53:35.672Z,81.80
2018-11-27T21:56:04.900Z,82.06
2018-11-27T21:58:34.229Z,81.03
2018-11-27T22:01:03.471Z,80.38
2018-11-27T22:03:32.768Z,82.41
2018-11-27T22:06:01.980Z,79.52
2018-11-27T22:08:31.360Z,78.61
2018-11-27T22:11:00.562Z,79.50
2018-11-27T22:13:29.771Z,79.21
2018-11-27T22:15:59.180Z,80.35
2018-11-27T22:18:28.366Z,79.94
2018-11-27T22:20:57.669Z,79.86
2018-11-27T22:23:26.885Z,79.52
2018-11-27T22:25:56.097Z,79.84
2018-11-27T22:28:25.360Z,80.88
2018-11-27T22:30:54.633Z,79.93
2018-11-27T22:33:23.923Z,80.53
2018-11-27T22:35:53.140Z,80.14
2018-11-27T22:38:22.366Z,80.14
2018-11-27T22:40:51.585Z,79.48
2018-11-27T22:43:20.891Z,79.88
2018-11-27T22:45:50.167Z,79.51
2018-11-27T22:48:20.109Z,80.08
2018-11-27T22:50:48.690Z,80.55
2018-11-27T22:53:17.956Z,80.51
2018-11-27T22:55:47.215Z,79.48
2018-11-27T22:58:16.439Z,80.30
2018-11-27T23:00:52.204Z,79.73
2018-11-27T23:03:21.449Z,80.46
2018-11-27T23:05:51.548Z,80.02
2018-11-27T23:08:20.729Z,80.82
2018-11-27T23:10:50.432Z,80.99
2018-11-27T23:13:19.641Z,81.19
2018-11-27T23:15:48.912Z,80.96
2018-11-27T23:18:18.143Z,80.71
2018-11-27T23:20:47.368Z,80.54
2018-11-27T23:23:16.652Z,81.18
2018-11-27T23:25:45.894Z,80.65
2018-11-27T23:28:15.154Z,79.33
2018-11-27T23:30:44.424Z,78.45
2018-11-27T23:33:13.807Z,77.31
2018-11-27T23:35:43.069Z,77.78
2018-11-27T23:38:12.344Z,78.08
2018-11-27T23:40:41.559Z,78.76
2018-11-27T23:43:10.793Z,79.31
2018-11-27T23:45:40.239Z,80.01
2018-11-27T23:48:09.528Z,79.86
2018-11-27T23:50:38.872Z,80.39
2018-11-27T23:53:08.182Z,81.15
2018-11-27T23:55:37.484Z,81.38
2018-11-27T23:58:07.540Z,80.90
